Tiempo atmosférico en la estación meteorológica de Tàrrega, Lleida (363 m.)



Fecha
DESCASC
Temp. máxima en grados centígrados (hora)
DESCASC
Temp. mínima en grados centígrados (hora)
DESCASC
Temp. media en grados centígrados
DESCASC
Racha de viento máxima en m/sg (hora)
DESCASC
Velocidad máxima media en intervalos de 10 minutos(hora)
DESCASC
Precipitaciones diarias en mm
DESCASC
Precipitaciones de 00:00 a 06:00 en mm
DESCASC
Precipitaciones de 06:00 a 12:00 en mm
DESCASC
Precipitaciones de 12:00 a 18:00 en mm
DESCASC
Precipitaciones de 18:00 a 24:00 en mm
DESCASC
22-04-2019 16.5 (12:40) 8.3 (03:30) 12.4 8.61 (14:00) 3.89 (14:00) 0 0 0 0 0
21-04-2019 16.7 (17:10) 8 (00:10) 12.4 11.39 (17:30) 4.44 (00:10) 0.7 0.7 0 0 0
20-04-2019 18.7 (13:20) 7.7 (06:50) 13.2 16.11 (21:30) 7.78 (21:40) 11.1 0 0 0 11.1
19-04-2019 20.4 (16:30) 11.6 (06:30) 16 13.33 (16:50) 5.56 (16:50) 0 0 0 0 0
18-04-2019 17.5 (15:30) 9.1 (00:00) 13.3 15 (16:30) 6.67 (16:30) 0 0 0 0 0
17-04-2019 20.3 (15:50) 7.2 (00:00) 13.7 8.33 (19:40) 4.44 (18:50) 0 0 0 0 0
16-04-2019 20 (15:30) 5.4 (00:00) 12.7 9.17 (19:30) 4.17 (19:30) 0.8 0.8 0 0 0
15-04-2019 17.3 (13:10) 9.1 (00:00) 13.2 9.72 (14:30) 5.28 (16:30) 0 0 0 0 0
14-04-2019 24.6 (17:50) 3.7 (00:00) 14.2 8.06 (18:10) 3.06 (18:00) 0 0 0 0 0
13-04-2019 20.4 (17:50) 1.8 (00:00) 11.1 6.39 (16:20) 2.78 (16:20) 0 0 0 0 0
12-04-2019 19.5 (16:50) 4 (00:00) 11.8 8.33 (18:00) 2.78 (13:20) 0 0 0 0 0
11-04-2019 18.4 (16:10) 3.8 (00:00) 11.1 8.33 (19:10) 3.06 (11:20) 0 0 0 0 0
10-04-2019 17.5 (16:50) 5.5 (00:00) 11.5 7.78 (16:20) 3.33 (17:30) 0 0 0 0 0
09-04-2019 18.2 (18:00) 6.4 (00:00) 12.3 10 (16:10) 3.61 (14:00) 2.5 0.2 0 0 2.3
08-04-2019 17.8 (17:00) 3.8 (00:00) 10.8 8.33 (16:50) 3.06 (16:40) 0 0 0 0 0
07-04-2019 15.5 (15:40) 2.8 (00:00) 9.1 7.5 (11:20) 2.78 (20:50) 0 0 0 0 0
06-04-2019 13.7 (17:10) 4.8 (00:00) 9.3 7.78 (14:00) 3.33 (11:30) 2.3 1.9 0.4 0 0
05-04-2019 13.6 (13:10) 1.4 (00:00) 7.5 8.06 (17:30) 3.89 (18:00) 10.1 0 1 1.6 7.5
04-04-2019 13.9 (16:00) 0.5 (00:00) 7.2 11.11 (15:30) 3.33 (14:40) 0 0 0 0 0
03-04-2019 12.4 (14:00) 4.7 (00:00) 8.5 7.22 (17:30) 2.78 (21:10) 0 0 0 0 0
02-04-2019 19.7 (15:40) 5.5 (00:00) 12.6 8.33 (15:40) 2.78 (16:10) 0 0 0 0 0
01-04-2019 18 (15:50) 6.6 (00:00) 12.3 6.39 (16:50) 2.22 (17:30) 0 0 0 0 0
31-03-2019 16 (16:40) 3 (00:00) 9.5 6.11 (11:10) 2.78 (11:30) 0 0 0 0 0
30-03-2019 18 (15:20) 2.1 (00:00) 10 8.06 (21:00) 3.89 (19:50) 0 0 0 0 0
29-03-2019 17.5 (12:10) 3.7 (00:00) 10.6 7.78 (18:10) 3.89 (15:30) 0 0 0 0 0
28-03-2019 17.5 (15:30) 2.6 (00:00) 10 7.22 (19:00) 3.33 (20:00) 0 0 0 0 0
27-03-2019 18.2 (16:10) 0.5 (00:00) 9.4 6.11 (14:30) 3.33 (20:50) 0 0 0 0 0
26-03-2019 18.8 (16:20) 0.8 (00:00) 9.8 8.33 (20:00) 4.17 (20:30) 0 0 0 0 0
25-03-2019 19.9 (17:00) 4.1 (00:00) 12 9.44 (12:50) 3.33 (13:00) 0 0 0 0 0

Gráficas

Temp. máximas Temp. mínimas Temp. medias Precipitaciones Rachas de viento máximas Velocidades máximas media en intervalos de 10 minutos

Datos horarios

Fecha y hora oficial Temperatura (ºC) Velocidad del viento (km/h) Dirección del viento Racha (km/h) Dirección de racha Precipitación (mm) Presión (hPa) Tendencia (hPa) Humedad (%)
2019-04-23 23:00:00 11.3 0 Calma 8 Este 0 -- -- 80
2019-04-23 22:00:00 11.3 2 Nordeste 10 Nordeste 0 -- -- 80
2019-04-23 21:00:00 11.5 6 Norte 27 Oeste 0 -- -- 76
2019-04-23 20:00:00 14.2 6 Sudoeste 34 Sudeste 0 -- -- 60
2019-04-23 19:00:00 16.1 12 Sudeste 33 Sudeste 0 -- -- 52
2019-04-23 18:00:00 18.2 9 Sur 28 Sudeste 0 -- -- 47
2019-04-23 17:00:00 17.2 8 Sudeste 20 Sudeste 0 -- -- 56
2019-04-23 16:00:00 17.8 5 Este 14 Sudeste 0 -- -- 57
2019-04-23 15:00:00 14.8 3 Sudeste 22 Sudoeste 3.8 -- -- 73
2019-04-23 14:00:00 17.7 0 Calma 12 Sudeste 0 -- -- 52
2019-04-23 13:00:00 16.6 5 Noroeste 14 Noroeste 0 -- -- 57
2019-04-23 12:00:00 15.1 5 Nordeste 12 Nordeste 0 -- -- 65
2019-04-23 11:00:00 14 2 Nordeste 7 Noroeste 0 -- -- 67
2019-04-23 10:00:00 12.2 0 Calma 4 Sudeste 0 -- -- 82
2019-04-23 09:00:00 11.2 0 Calma 6 Sudeste 0 -- -- 86
2019-04-23 08:00:00 10.5 0 Calma 4 Este 0 -- -- 89
2019-04-23 07:00:00 10.2 0 Calma 8 Sudeste 0 -- -- 90
2019-04-23 06:00:00 10.5 2 Sudeste 4 Sudeste 0 -- -- 88
2019-04-23 05:00:00 10.5 0 Calma 4 Sudeste 0 -- -- 88
2019-04-23 04:00:00 10.6 0 Calma 5 Sudeste 0 -- -- 88
2019-04-23 03:00:00 10.8 2 Sudeste 5 Noroeste 0 -- -- 86
2019-04-23 02:00:00 11 3 Noroeste 6 Noroeste 0 -- -- 87
2019-04-23 01:00:00 11.4 2 Noroeste 9 Oeste 0.1 -- -- 87
2019-04-23 00:00:00 11.8 4 Sudoeste 10 Sudoeste 0 -- -- 85
2019-04-22 23:00:00 12 0 Calma 5 Este 0 -- -- 88
2019-04-22 22:00:00 12.2 0 Calma 6 Sudeste 0 -- -- 87
2019-04-22 21:00:00 12.7 3 Noroeste 9 Oeste 0 -- -- 86
2019-04-22 20:00:00 13.3 4 Noroeste 7 Noroeste 0 -- -- 80
2019-04-22 19:00:00 13.6 3 Noroeste 10 Noroeste 0 -- -- 76
2019-04-22 18:00:00 14.2 3 Oeste 23 Norte 0 -- -- 67
2019-04-22 17:00:00 15.6 4 Nordeste 18 Sudeste 0 -- -- 53
2019-04-22 16:00:00 15 6 Este 18 Nordeste 0 -- -- 53
2019-04-22 15:00:00 15.2 9 Nordeste 26 Nordeste 0 -- -- 53
2019-04-22 14:00:00 15.3 14 Nordeste 31 Norte 0 -- -- 51
2019-04-22 13:00:00 15.7 11 Nordeste 24 Nordeste 0 -- -- 48
2019-04-22 12:00:00 13.1 5 Noroeste 12 Noroeste 0 -- -- 72
2019-04-22 11:00:00 11.6 4 Sudoeste 11 Sudoeste 0 -- -- 72
2019-04-22 10:00:00 9.7 4 Sudeste 10 Sudoeste 0 -- -- 80
2019-04-22 09:00:00 9.7 4 Sudoeste 10 Noroeste 0 -- -- 75
2019-04-22 08:00:00 9.9 4 Noroeste 10 Noroeste 0 -- -- 68
2019-04-22 07:00:00 12.5 3 Nordeste 28 Nordeste 0 -- -- 53
2019-04-22 06:00:00 11.8 8 Nordeste 22 Nordeste 0 -- -- 58
2019-04-22 05:00:00 8.8 3 Nordeste 6 Nordeste 0 -- -- 75
2019-04-22 04:00:00 8.9 0 Calma 7 Noroeste 0 -- -- 74
2019-04-22 03:00:00 8.7 0 Calma 6 Sur 0 -- -- 76
2019-04-22 02:00:00 9.5 0 Calma 4 Noroeste 0 -- -- 69
2019-04-22 01:00:00 10.8 0 Calma 7 Norte 0 -- -- 62
2019-04-22 00:00:00 11.7 4 Noroeste 14 Nordeste 0 -- -- 57
2019-04-21 23:00:00 12.3 6 Nordeste 21 Este 0 -- -- 53
2019-04-21 22:00:00 13.3 6 Nordeste 21 Nordeste 0 -- -- 50
2019-04-21 21:00:00 13.6 8 Nordeste 17 Este 0 -- -- 49
2019-04-21 20:00:00 13.9 4 Este 27 Nordeste 0 -- -- 48
2019-04-21 19:00:00 14.9 10 Este 31 Nordeste 0 -- -- 45
2019-04-21 18:00:00 15.8 8 Este 41 Nordeste 0 -- -- 42
2019-04-21 17:00:00 16.6 11 Nordeste 33 Este 0 -- -- 41
2019-04-21 16:00:00 15.3 12 Nordeste 38 Nordeste 0 -- -- 44
2019-04-21 15:00:00 14.7 9 Nordeste 32 Nordeste 0 -- -- 47
2019-04-21 14:00:00 14.2 11 Nordeste 36 Nordeste 0 -- -- 49
2019-04-21 13:00:00 12.9 6 Este 32 Este 0 -- -- 57
2019-04-21 12:00:00 13.5 7 Nordeste 26 Nordeste 0 -- -- 54
2019-04-21 11:00:00 11.9 0 Calma 8 Noroeste 0 -- -- 76
2019-04-21 10:00:00 10.4 0 Calma 4 Sudeste 0 -- -- 80
2019-04-21 09:00:00 9.1 0 Calma 5 Sudoeste 0 -- -- 87
2019-04-21 08:00:00 9.2 0 Calma 6 Sudeste 0 -- -- 84
2019-04-21 07:00:00 9.2 0 Calma 10 Nordeste 0 -- -- 83
2019-04-21 06:00:00 9.3 4 Norte 10 Norte 0.1 -- -- 80
2019-04-21 05:00:00 8.7 4 Este 19 Noroeste 0.4 -- -- 83
2019-04-21 04:00:00 8.8 2 Nordeste 8 Nordeste 0 -- -- 81
2019-04-21 03:00:00 8.4 4 Sudeste 13 Nordeste 0 -- -- 84
2019-04-21 02:00:00 8.5 2 Este 23 Nordeste 0 -- -- 82
2019-04-21 01:00:00 8.4 12 Nordeste 31 Nordeste 0.2 -- -- 83
2019-04-21 00:00:00 8.1 22 Nordeste 43 Nordeste 1.3 -- -- 85
2019-04-20 23:00:00 8.4 17 Nordeste 50 Este 5.3 -- -- 79
2019-04-20 22:00:00 8.6 24 Este 58 Este 3.2 -- -- 83
2019-04-20 21:00:00 9.9 17 Este 41 Este 0.7 -- -- 79
2019-04-20 20:00:00 10.9 12 Sudeste 39 Este 0.6 -- -- 69
2019-04-20 19:00:00 15.4 10 Este 33 Sudeste 0 -- -- 39
2019-04-20 18:00:00 16.1 10 Nordeste 38 Este 0 -- -- 38
2019-04-20 17:00:00 16.5 8 Este 35 Este 0 -- -- 38
2019-04-20 16:00:00 16.8 11 Este 39 Nordeste 0 -- -- 38
2019-04-20 15:00:00 16.8 14 Nordeste 42 Nordeste 0 -- -- 37
2019-04-20 14:00:00 18 9 Este 32 Nordeste 0 -- -- 34
2019-04-20 13:00:00 18.1 9 Este 41 Este 0 -- -- 36
2019-04-20 12:00:00 17.7 8 Este 29 Este 0 -- -- 37
2019-04-20 11:00:00 17.2 11 Este 37 Este 0 -- -- 37
2019-04-20 10:00:00 16 10 Este 32 Norte 0 -- -- 40
2019-04-20 09:00:00 13.7 4 Este 15 Este 0 -- -- 45
2019-04-20 08:00:00 11.6 6 Nordeste 12 Norte 0 -- -- 49
2019-04-20 07:00:00 8.4 0 Calma 5 Norte 0 -- -- 60
2019-04-20 06:00:00 8.3 0 Calma 5 Sudeste 0 -- -- 57
2019-04-20 05:00:00 10.9 0 Calma 10 Sur 0 -- -- 48
2019-04-20 04:00:00 11.9 4 Sudeste 13 Este 0 -- -- 45
2019-04-20 03:00:00 12.7 8 Este 23 Este 0 -- -- 41
2019-04-20 02:00:00 14 9 Este 21 Este 0 -- -- 37
2019-04-20 01:00:00 14.6 6 Este 24 Este 0 -- -- 34
2019-04-20 00:00:00 14.4 3 Este 16 Este 0 -- -- 37
2019-04-19 23:00:00 14.6 3 Este 22 Nordeste 0 -- -- 39
2019-04-19 22:00:00 15.1 4 Este 20 Nordeste 0 -- -- 39
2019-04-19 21:00:00 16.1 5 Nordeste 25 Nordeste 0 -- -- 35
2019-04-19 20:00:00 17.1 7 Este 35 Nordeste 0 -- -- 30
2019-04-19 19:00:00 18.3 9 Nordeste 42 Nordeste 0 -- -- 29
2019-04-19 18:00:00 18.9 12 Nordeste 36 Nordeste 0 -- -- 30
2019-04-19 17:00:00 19.4 16 Nordeste 48 Nordeste 0 -- -- 34
2019-04-19 16:00:00 19.5 12 Nordeste 36 Nordeste 0 -- -- 33
2019-04-19 15:00:00 19.1 9 Este 39 Este 0 -- -- 36
2019-04-19 14:00:00 17.5 13 Este 37 Este 0 -- -- 41
2019-04-19 13:00:00 16.8 17 Este 41 Este 0 -- -- 44
2019-04-19 12:00:00 16.1 10 Este 40 Este 0 -- -- 46
2019-04-19 11:00:00 15.5 10 Este 45 Este 0 -- -- 47
2019-04-19 10:00:00 15.2 8 Este 35 Este 0 -- -- 45
2019-04-19 09:00:00 14.4 8 Este 27 Nordeste 0 -- -- 49
2019-04-19 08:00:00 13 8 Este 28 Este 0 -- -- 51
2019-04-19 07:00:00 11.8 10 Nordeste 25 Nordeste 0 -- -- 53
2019-04-19 06:00:00 12.3 4 Nordeste 14 Nordeste 0 -- -- 50
2019-04-19 05:00:00 12.4 6 Este 25 Este 0 -- -- 50
2019-04-19 04:00:00 12.5 6 Este 36 Este 0 -- -- 50
2019-04-19 03:00:00 12.7 8 Este 24 Nordeste 0 -- -- 49
2019-04-19 02:00:00 13.1 5 Este 25 Sudeste 0 -- -- 46
2019-04-19 01:00:00 13.6 11 Sudeste 32 Este 0 -- -- 45
2019-04-19 00:00:00 13.8 3 Este 31 Este 0 -- -- 44
2019-04-18 23:00:00 13.5 10 Este 36 Nordeste 0 -- -- 48
2019-04-18 22:00:00 13.6 10 Este 28 Sudeste 0 -- -- 48
2019-04-18 21:00:00 14.4 9 Este 29 Sudeste 0 -- -- 44
2019-04-18 20:00:00 15.6 10 Este 31 Sudeste 0 -- -- 44
2019-04-18 19:00:00 16.2 13 Este 49 Este 0 -- -- 41
2019-04-18 18:00:00 16.1 12 Este 40 Este 0 -- -- 45
2019-04-18 17:00:00 16.5 17 Este 54 Sudeste 0 -- -- 44
2019-04-18 16:00:00 17.1 16 Sudeste 29 Sudeste 0 -- -- 40
2019-04-18 15:00:00 17.4 12 Este 45 Nordeste 0 -- -- 40
2019-04-18 14:00:00 16.1 12 Este 38 Este 0 -- -- 45
2019-04-18 13:00:00 14.5 9 Este 35 Este 0 -- -- 52
2019-04-18 12:00:00 13.4 7 Este 21 Este 0 -- -- 55
2019-04-18 11:00:00 12.5 5 Este 23 Este 0 -- -- 52
2019-04-18 10:00:00 12.5 8 Este 28 Sudeste 0 -- -- 56
2019-04-18 09:00:00 11.5 12 Sudeste 22 Sudeste 0 -- -- 69
2019-04-18 08:00:00 10.1 11 Este 25 Este 0 -- -- 80
2019-04-18 07:00:00 10.2 9 Este 26 Este 0 -- -- 81
2019-04-18 06:00:00 9.9 6 Este 21 Este 0 -- -- 82
2019-04-18 05:00:00 9.6 7 Este 15 Sudeste 0 -- -- 83
2019-04-18 04:00:00 9.8 3 Este 15 Sudeste 0 -- -- 81
2019-04-18 03:00:00 10.4 8 Sudeste 17 Sur 0 -- -- 80
2019-04-18 02:00:00 10.8 5 Este 19 Sudeste 0 -- -- 78
2019-04-18 01:00:00 10.7 7 Este 26 Este 0 -- -- 79
2019-04-18 00:00:00 11.3 8 Este 21 Este 0 -- -- 71
2019-04-17 23:00:00 11.9 8 Este 22 Este 0 -- -- 57
2019-04-17 22:00:00 13 7 Este 19 Este 0 -- -- 49
2019-04-17 21:00:00 13.9 7 Sudeste 20 Sudeste 0 -- -- 50
2019-04-17 20:00:00 14.9 12 Sudeste 30 Sudeste 0 -- -- 49
2019-04-17 19:00:00 16.3 15 Sudeste 26 Sudeste 0 -- -- 45
2019-04-17 18:00:00 18.1 13 Sudeste 26 Sudeste 0 -- -- 43
2019-04-17 17:00:00 19.5 11 Sudeste 29 Sudeste 0 -- -- 41
2019-04-17 16:00:00 20.1 11 Sudeste 27 Sudeste 0 -- -- 40
2019-04-17 15:00:00 18.7 9 Sudeste 26 Sudeste 0 -- -- 42
2019-04-17 14:00:00 18.1 10 Sudeste 23 Sudeste 0 -- -- 42
2019-04-17 13:00:00 17.1 6 Sur 22 Sudeste 0 -- -- 45
2019-04-17 12:00:00 17.6 8 Sudeste 24 Sudeste 0 -- -- 45
2019-04-17 11:00:00 16.3 6 Sudeste 18 Este 0 -- -- 47
2019-04-17 10:00:00 14.5 5 Este 18 Este 0 -- -- 60
2019-04-17 09:00:00 11.7 5 Este 14 Nordeste 0 -- -- 75
2019-04-17 08:00:00 8.4 2 Este 12 Nordeste 0 -- -- 89
2019-04-17 07:00:00 7.6 5 Este 14 Este 0 -- -- 90
2019-04-17 06:00:00 7.5 5 Este 13 Este 0 -- -- 90
2019-04-17 05:00:00 7.5 3 Este 11 Este 0 -- -- 90
2019-04-17 04:00:00 7.4 2 Sudeste 7 Este 0 -- -- 88
2019-04-17 03:00:00 7.6 0 Calma 8 Nordeste 0 -- -- 87
2019-04-17 02:00:00 8.1 3 Nordeste 6 Este 0 -- -- 84
2019-04-17 01:00:00 9.3 2 Nordeste 8 Nordeste 0 -- -- 78
2019-04-17 00:00:00 10 4 Nordeste 15 Este 0 -- -- 72
2019-04-16 23:00:00 11 8 Sudeste 29 Sudeste 0 -- -- 69
2019-04-16 22:00:00 11.6 12 Sudeste 29 Sudeste 0 -- -- 61
2019-04-16 21:00:00 12.2 15 Sudeste 30 Sudeste 0 -- -- 51
2019-04-16 20:00:00 14.2 9 Sur 33 Sudeste 0 -- -- 53
2019-04-16 19:00:00 15.6 11 Sur 28 Sudeste 0 -- -- 45
2019-04-16 18:00:00 18 6 Sur 17 Sudeste 0 -- -- 44
2019-04-16 17:00:00 17.1 7 Sudeste 24 Sudeste 0 -- -- 48
2019-04-16 16:00:00 18 13 Sudeste 22 Sudeste 0 -- -- 45
2019-04-16 15:00:00 18.5 3 Sudoeste 17 Nordeste 0 -- -- 45
2019-04-16 14:00:00 16.1 5 Noroeste 15 Noroeste 0 -- -- 49
2019-04-16 13:00:00 15 7 Noroeste 14 Noroeste 0 -- -- 52
2019-04-16 12:00:00 13.9 4 Oeste 11 Sur 0 -- -- 56
2019-04-16 11:00:00 12 4 Oeste 14 Oeste 0 -- -- 67
2019-04-16 10:00:00 10.4 4 Sudoeste 9 Sudoeste 0 -- -- 76
2019-04-16 09:00:00 7.8 3 Sudeste 7 Sudeste 0 -- -- 80
2019-04-16 08:00:00 6.4 2 Sudeste 8 Sudeste 0 -- -- 81
2019-04-16 07:00:00 5.6 4 Sudeste 7 Sudeste 0 -- -- 83
2019-04-16 06:00:00 6.6 3 Sudeste 8 Sudeste 0 -- -- 81
2019-04-16 05:00:00 7.5 2 Este 8 Este 0 -- -- 77
2019-04-16 04:00:00 8.4 3 Sudeste 15 Este 0 -- -- 73
2019-04-16 03:00:00 8 5 Este 12 Este 0 -- -- 75
2019-04-16 02:00:00 8.2 7 Este 24 Este 0 -- -- 74
2019-04-16 01:00:00 9 5 Nordeste 12 Nordeste 0.8 -- -- 64
2019-04-16 00:00:00 10.6 3 Este 11 Este 0 -- -- 46
2019-04-15 23:00:00 10.8 2 Este 17 Este 0 -- -- 45
2019-04-15 22:00:00 10.9 10 Sudeste 25 Este 0 -- -- 45
2019-04-15 21:00:00 11.9 12 Sudeste 23 Sudeste 0 -- -- 43
2019-04-15 20:00:00 13.7 12 Sudeste 33 Sudeste 0 -- -- 40
2019-04-15 19:00:00 14.5 16 Sudeste 32 Sudeste 0 -- -- 39
2019-04-15 18:00:00 15 12 Sudeste 34 Sudeste 0 -- -- 40
2019-04-15 17:00:00 14.8 18 Sudeste 34 Sudeste 0 -- -- 41
2019-04-15 16:00:00 15.7 15 Sudeste 32 Sudeste 0 -- -- 41
2019-04-15 15:00:00 16.1 12 Sudeste 35 Sudeste 0 -- -- 42
2019-04-15 14:00:00 16.1 14 Sudeste 27 Sudeste 0 -- -- 44
2019-04-15 13:00:00 16.2 10 Sudeste 32 Sudeste 0 -- -- 48
2019-04-15 12:00:00 15.2 10 Sur 27 Sudeste 0 -- -- 50
2019-04-15 11:00:00 14.9 11 Sudeste 27 Sudeste 0 -- -- 49
2019-04-15 10:00:00 13.8 10 Sudeste 23 Sudeste 0 -- -- 49
2019-04-15 09:00:00 12.6 8 Sudeste 17 Sudeste 0 -- -- 48
2019-04-15 08:00:00 9.9 3 Noroeste 9 Noroeste 0 -- -- 57
2019-04-15 07:00:00 11 4 Este 10 Nordeste 0 -- -- 49
2019-04-15 06:00:00 10.6 4 Nordeste 12 Este 0 -- -- 54
2019-04-15 05:00:00 10.7 7 Este 18 Sudeste 0 -- -- 64
2019-04-15 04:00:00 10.2 12 Sudeste 21 Sudeste 0 -- -- 77
2019-04-15 03:00:00 11 13 Este 26 Este 0 -- -- 82
2019-04-15 02:00:00 11.2 13 Este 26 Sudeste 0 -- -- 83
2019-04-15 01:00:00 12.2 10 Este 25 Este 0 -- -- 75
2019-04-15 00:00:00 13.9 5 Sudeste 12 Sudeste 0 -- -- 65
2019-04-14 23:00:00 16.1 3 Sudeste 14 Sudeste 0 -- -- 57
2019-04-14 22:00:00 17.1 3 Sur 15 Sudeste 0 -- -- 54
2019-04-14 21:00:00 18.5 4 Sur 20 Sudoeste 0 -- -- 46
2019-04-14 20:00:00 21.4 9 Sudoeste 23 Sudoeste 0 -- -- 40
2019-04-14 19:00:00 22.1 9 Oeste 29 Sudoeste 0 -- -- 37
2019-04-14 18:00:00 23.3 11 Sudoeste 27 Sudoeste 0 -- -- 35
2019-04-14 17:00:00 23.2 6 Sudoeste 15 Sur 0 -- -- 37
2019-04-14 16:00:00 21.1 7 Noroeste 21 Sur 0 -- -- 36
2019-04-14 15:00:00 21.4 6 Oeste 23 Oeste 0 -- -- 34
2019-04-14 14:00:00 19.4 7 Oeste 28 Oeste 0 -- -- 34
2019-04-14 13:00:00 18.3 8 Oeste 25 Sur 0 -- -- 33
2019-04-14 12:00:00 16.5 8 Sudoeste 21 Sudoeste 0 -- -- 33
2019-04-14 11:00:00 15 6 Sudoeste 14 Sudoeste 0 -- -- 33
2019-04-14 10:00:00 12.5 0 Calma 8 Sudoeste 0 -- -- 35
2019-04-14 09:00:00 8.8 0 Calma 4 Sur 0 -- -- 51
2019-04-14 08:00:00 4.3 2 Sudeste 5 Sur 0 -- -- 56
2019-04-14 07:00:00 4 2 Sudeste 5 Sudeste 0 -- -- 55
2019-04-14 06:00:00 4.3 0 Calma 6 Sudeste 0 -- -- 52
2019-04-14 05:00:00 4.9 3 Sudeste 7 Sudeste 0 -- -- 50
2019-04-14 04:00:00 4.8 3 Sur 7 Sudeste 0 -- -- 51
2019-04-14 03:00:00 5.2 0 Calma 5 Sudeste 0 -- -- 50
2019-04-14 02:00:00 6.2 2 Sudeste 4 Sudeste 0 -- -- 46
2019-04-14 01:00:00 9.1 2 Sudeste 9 Este 0 -- -- 38
2019-04-14 00:00:00 11.2 3 Sudeste 7 Sudeste 0 -- -- 33
2019-04-13 23:00:00 11.3 4 Sudeste 7 Sudeste 0 -- -- 34
2019-04-13 22:00:00 12.6 4 Sudeste 6 Sudeste 0 -- -- 34
2019-04-13 21:00:00 16.1 0 Calma 11 Oeste 0 -- -- 27
2019-04-13 20:00:00 18.6 3 Oeste 21 Oeste 0 -- -- 23
2019-04-13 19:00:00 19.6 5 Oeste 21 Sudoeste 0 -- -- 22
2019-04-13 18:00:00 19.9 7 Sudoeste 23 Sudoeste 0 -- -- 22
2019-04-13 17:00:00 20.3 8 Sudoeste 23 Oeste 0 -- -- 25
2019-04-13 16:00:00 18.7 6 Sudoeste 22 Noroeste 0 -- -- 29
2019-04-13 15:00:00 17.5 8 Sudoeste 22 Sudoeste 0 -- -- 30
2019-04-13 14:00:00 16.3 6 Sudoeste 18 Oeste 0 -- -- 36
2019-04-13 13:00:00 14.7 5 Sudoeste 18 Oeste 0 -- -- 44
2019-04-13 12:00:00 12.2 6 Sudoeste 19 Oeste 0 -- -- 49
2019-04-13 11:00:00 10.6 5 Sudoeste 18 Oeste 0 -- -- 57
2019-04-13 10:00:00 8.7 5 Oeste 17 Sudoeste 0 -- -- 62
2019-04-13 09:00:00 6 0 Calma 6 Sudeste 0 -- -- 74
2019-04-13 08:00:00 2.2 3 Sudeste 7 Sur 0 -- -- 85
2019-04-13 07:00:00 2.1 2 Sudeste 7 Sudeste 0 -- -- 85
2019-04-13 06:00:00 2.6 3 Sudeste 7 Sudeste 0 -- -- 85
2019-04-13 05:00:00 3.4 3 Sudeste 6 Sudeste 0 -- -- 85
2019-04-13 04:00:00 5 3 Sudeste 8 Sudeste 0 -- -- 82
2019-04-13 03:00:00 5.6 4 Sudeste 10 Sur 0 -- -- 80
2019-04-13 02:00:00 6.4 4 Sur 19 Este 0 -- -- 80
2019-04-13 01:00:00 7.3 5 Este 15 Este 0 -- -- 79
2019-04-13 00:00:00 7.8 2 Sudeste 8 Sudeste 0 -- -- 73
2019-04-12 23:00:00 9.3 2 Sudeste 9 Sudeste 0 -- -- 47
2019-04-12 22:00:00 12.7 0 Calma 9 Oeste 0 -- -- 37
2019-04-12 21:00:00 14.8 3 Sudoeste 16 Sudoeste 0 -- -- 31
2019-04-12 20:00:00 17 4 Oeste 22 Sudoeste 0 -- -- 26
2019-04-12 19:00:00 18.3 9 Sudoeste 26 Sudoeste 0 -- -- 26
2019-04-12 18:00:00 18.9 10 Sudoeste 30 Sudoeste 0 -- -- 28
2019-04-12 17:00:00 19.2 9 Sudoeste 26 Oeste 0 -- -- 30
2019-04-12 16:00:00 17.6 7 Oeste 26 Noroeste 0 -- -- 33
2019-04-12 15:00:00 16.9 8 Sudoeste 28 Sudoeste 0 -- -- 36
2019-04-12 14:00:00 15.3 8 Sudoeste 24 Sudoeste 0 -- -- 43
2019-04-12 13:00:00 13.9 9 Sudoeste 25 Noroeste 0 -- -- 48
2019-04-12 12:00:00 12.2 8 Oeste 27 Noroeste 0 -- -- 56
2019-04-12 11:00:00 10.4 6 Sudoeste 19 Sudoeste 0 -- -- 63
2019-04-12 10:00:00 9 6 Oeste 18 Sudoeste 0 -- -- 71
2019-04-12 09:00:00 6.8 3 Sudoeste 10 Oeste 0 -- -- 76
2019-04-12 08:00:00 4.3 0 Calma 8 Sudoeste 0 -- -- 80
2019-04-12 07:00:00 5.5 3 Oeste 11 Sudoeste 0 -- -- 76
2019-04-12 06:00:00 5.7 0 Calma 10 Sudoeste 0 -- -- 74
2019-04-12 05:00:00 6 0 Calma 7 Sudoeste 0 -- -- 74
2019-04-12 04:00:00 6.7 2 Sur 14 Oeste 0 -- -- 70
2019-04-12 03:00:00 7.5 5 Sudoeste 15 Oeste 0 -- -- 65
2019-04-12 02:00:00 8.1 3 Sudoeste 12 Sudoeste 0 -- -- 60
2019-04-12 01:00:00 9.2 5 Sur 14 Sudoeste 0 -- -- 56
2019-04-12 00:00:00 10.7 5 Sur 16 Sur 0 -- -- 51
2019-04-11 23:00:00 12.1 4 Sudoeste 12 Nordeste 0 -- -- 45
2019-04-11 22:00:00 13.3 6 Nordeste 14 Nordeste 0 -- -- 41
2019-04-11 21:00:00 13.8 0 Calma 14 Oeste 0 -- -- 43
2019-04-11 20:00:00 15.4 7 Oeste 30 Oeste 0 -- -- 38
2019-04-11 19:00:00 16.9 6 Oeste 27 Sudoeste 0 -- -- 33
2019-04-11 18:00:00 17.6 5 Oeste 22 Oeste 0 -- -- 28
2019-04-11 17:00:00 17.4 7 Oeste 27 Noroeste 0 -- -- 28
2019-04-11 16:00:00 17.8 6 Oeste 24 Oeste 0 -- -- 29
2019-04-11 15:00:00 17.1 5 Oeste 28 Sur 0 -- -- 30
2019-04-11 14:00:00 15.2 6 Oeste 23 Sudoeste 0 -- -- 36
2019-04-11 13:00:00 14.2 7 Sudoeste 23 Oeste 0 -- -- 42
2019-04-11 12:00:00 12.1 8 Sudoeste 27 Sudoeste 0 -- -- 52
2019-04-11 11:00:00 10.1 7 Sudoeste 22 Sudoeste 0 -- -- 59
2019-04-11 10:00:00 9 6 Sudoeste 18 Sudoeste 0 -- -- 66
2019-04-11 09:00:00 6.8 4 Sur 9 Sur 0 -- -- 73
2019-04-11 08:00:00 3.9 0 Calma 5 Sur 0 -- -- 83
2019-04-11 07:00:00 4.5 0 Calma 5 Sur 0 -- -- 80
2019-04-11 06:00:00 4.8 0 Calma 6 Sur 0 -- -- 79
2019-04-11 05:00:00 5.3 0 Calma 5 Sudoeste 0 -- -- 78
2019-04-11 04:00:00 5.7 0 Calma 11 Oeste 0 -- -- 75
2019-04-11 03:00:00 7.4 3 Oeste 8 Sudoeste 0 -- -- 72
2019-04-11 02:00:00 6.2 0 Calma 6 Sudeste 0 -- -- 72
2019-04-11 01:00:00 7.4 3 Sudeste 6 Sudeste 0 -- -- 68
2019-04-11 00:00:00 8.4 3 Sudeste 7 Sudeste 0 -- -- 63
2019-04-10 23:00:00 9.5 3 Sudeste 7 Sur 0 -- -- 57
2019-04-10 22:00:00 11.9 3 Sudoeste 12 Sudoeste 0 -- -- 46
2019-04-10 21:00:00 12.9 5 Sudoeste 13 Sudoeste 0 -- -- 42
2019-04-10 20:00:00 14.4 4 Oeste 13 Oeste 0 -- -- 35
2019-04-10 19:00:00 15.2 7 Noroeste 18 Noroeste 0 -- -- 35
2019-04-10 18:00:00 15.9 10 Noroeste 28 Noroeste 0 -- -- 33
2019-04-10 17:00:00 16.9 8 Oeste 28 Sudoeste 0 -- -- 36
2019-04-10 16:00:00 16.3 8 Noroeste 24 Noroeste 0 -- -- 38
2019-04-10 15:00:00 15 7 Noroeste 18 Oeste 0 -- -- 44
2019-04-10 14:00:00 14.4 6 Sudoeste 20 Sudoeste 0 -- -- 50
2019-04-10 13:00:00 13 4 Oeste 21 Sudoeste 0 -- -- 57
2019-04-10 12:00:00 10.8 5 Sudoeste 18 Sudoeste 0 -- -- 62
2019-04-10 11:00:00 10.1 4 Sudoeste 17 Sudoeste 0 -- -- 66
2019-04-10 10:00:00 7.8 4 Sudoeste 14 Sudoeste 0 -- -- 77
2019-04-10 09:00:00 6.8 2 Sudoeste 9 Sudoeste 0 -- -- 84
2019-04-10 08:00:00 5.7 3 Sur 9 Sudoeste 0 -- -- 90
2019-04-10 07:00:00 5.8 4 Sudoeste 11 Sudoeste 0 -- -- 90
2019-04-10 06:00:00 6.5 3 Sur 12 Sudoeste 0 -- -- 87
2019-04-10 05:00:00 7.2 3 Sudoeste 11 Sudoeste 0 -- -- 83
2019-04-10 04:00:00 7.4 3 Sudoeste 10 Sudoeste 0 -- -- 81
2019-04-10 03:00:00 7.8 2 Sur 9 Sudoeste 0 -- -- 80
2019-04-10 02:00:00 8.2 2 Sudeste 10 Oeste 0 -- -- 82
2019-04-10 01:00:00 8.6 3 Oeste 15 Oeste 0 -- -- 79
2019-04-10 00:00:00 8.8 0 Calma 8 Sudeste 0 -- -- 79
2019-04-09 23:00:00 8.8 3 Sur 11 Este 0 -- -- 80
2019-04-09 22:00:00 9.5 8 Este 19 Este 2.3 -- -- 77
2019-04-09 21:00:00 10.6 6 Este 23 Este 0 -- -- 57
2019-04-09 20:00:00 11.8 13 Este 26 Este 0 -- -- 49
2019-04-09 19:00:00 13.8 11 Nordeste 25 Nordeste 0 -- -- 38
2019-04-09 18:00:00 17.3 6 Oeste 25 Sudoeste 0 -- -- 28
2019-04-09 17:00:00 17.5 6 Oeste 36 Oeste 0 -- -- 30
2019-04-09 16:00:00 16.6 12 Oeste 34 Sudoeste 0 -- -- 32
2019-04-09 15:00:00 17 9 Oeste 31 Sudoeste 0 -- -- 34
2019-04-09 14:00:00 15.7 13 Sudoeste 33 Sudoeste 0 -- -- 38
2019-04-09 13:00:00 14.5 11 Sudoeste 24 Sudoeste 0 -- -- 45
2019-04-09 12:00:00 12.9 11 Sudoeste 27 Oeste 0 -- -- 56
2019-04-09 11:00:00 11.1 10 Sudoeste 24 Sudoeste 0 -- -- 59
2019-04-09 10:00:00 10.7 4 Oeste 15 Oeste 0 -- -- 67
2019-04-09 09:00:00 9.6 3 Sudoeste 14 Sudoeste 0 -- -- 73
2019-04-09 08:00:00 7.4 2 Sur 14 Oeste 0 -- -- 87
2019-04-09 07:00:00 7.7 5 Sudoeste 15 Sudoeste 0 -- -- 88
2019-04-09 06:00:00 6.9 3 Sudeste 6 Sudeste 0 -- -- 88
2019-04-09 05:00:00 6.8 2 Sudeste 6 Sudeste 0 -- -- 88
2019-04-09 04:00:00 7.6 2 Sudeste 5 Sudeste 0.2 -- -- 84
2019-04-09 03:00:00 7.5 3 Sur 5 Sudeste 0 -- -- 77
2019-04-09 02:00:00 7.9 4 Sudeste 6 Sudeste 0 -- -- 75
2019-04-09 01:00:00 8.7 3 Sudeste 6 Sudeste 0 -- -- 73
2019-04-09 00:00:00 9.7 0 Calma 7 Sudeste 0 -- -- 69
2019-04-08 23:00:00 11.2 2 Sudeste 11 Sudoeste 0 -- -- 60
2019-04-08 22:00:00 12.7 4 Sudoeste 13 Sudoeste 0 -- -- 57
2019-04-08 21:00:00 13.6 3 Sudoeste 12 Sudoeste 0 -- -- 53
2019-04-08 20:00:00 15.1 5 Sudoeste 20 Sudoeste 0 -- -- 48
2019-04-08 19:00:00 16.7 7 Sudoeste 20 Oeste 0 -- -- 43
2019-04-08 18:00:00 17.4 7 Oeste 23 Sudoeste 0 -- -- 43
2019-04-08 17:00:00 17.2 7 Oeste 30 Sudoeste 0 -- -- 44
2019-04-08 16:00:00 16.4 9 Sudoeste 28 Sudoeste 0 -- -- 46
2019-04-08 15:00:00 15.1 6 Oeste 27 Noroeste 0 -- -- 50
2019-04-08 14:00:00 14.3 8 Oeste 25 Noroeste 0 -- -- 50
2019-04-08 13:00:00 13.4 8 Oeste 21 Oeste 0 -- -- 51
2019-04-08 12:00:00 12.7 4 Oeste 17 Oeste 0 -- -- 52
2019-04-08 11:00:00 11.6 5 Sudoeste 17 Oeste 0 -- -- 56
2019-04-08 10:00:00 9.1 4 Sudoeste 13 Sudoeste 0 -- -- 62
2019-04-08 09:00:00 7.6 3 Sur 8 Sudoeste 0 -- -- 72
2019-04-08 08:00:00 4.8 2 Sudeste 5 Sudeste 0 -- -- 81
2019-04-08 07:00:00 5.2 0 Calma 5 Sudeste 0 -- -- 79
2019-04-08 06:00:00 4.9 3 Sudeste 6 Sudeste 0 -- -- 79
2019-04-08 05:00:00 4.1 3 Sudeste 5 Sudeste 0 -- -- 81
2019-04-08 04:00:00 4.5 0 Calma 5 Sudeste 0 -- -- 79
2019-04-08 03:00:00 5 0 Calma 6 Sudeste 0 -- -- 75
2019-04-08 02:00:00 5.6 3 Sudeste 6 Sudeste 0 -- -- 70
2019-04-08 01:00:00 6.7 0 Calma 8 Este 0 -- -- 66
2019-04-08 00:00:00 7.2 5 Sudeste 13 Sudeste 0 -- -- 65
2019-04-07 23:00:00 7.9 3 Sudeste 12 Sudeste 0 -- -- 66
2019-04-07 22:00:00 8.5 3 Sudeste 14 Sudeste 0 -- -- 65
2019-04-07 21:00:00 9.2 10 Sudeste 21 Este 0 -- -- 65
2019-04-07 20:00:00 10.1 6 Este 20 Este 0 -- -- 60
2019-04-07 19:00:00 13.8 4 Oeste 16 Sudoeste 0 -- -- 35
2019-04-07 18:00:00 13.6 3 Norte 21 Noroeste 0 -- -- 37
2019-04-07 17:00:00 13.4 4 Oeste 22 Oeste 0 -- -- 40
2019-04-07 16:00:00 14.2 8 Sudoeste 24 Oeste 0 -- -- 38
2019-04-07 15:00:00 14.2 7 Sudoeste 23 Oeste 0 -- -- 40
2019-04-07 14:00:00 13.9 6 Oeste 25 Oeste 0 -- -- 44
2019-04-07 13:00:00 12.2 7 Oeste 21 Oeste 0 -- -- 51
2019-04-07 12:00:00 10.1 7 Sudoeste 27 Oeste 0 -- -- 61
2019-04-07 11:00:00 8.2 7 Sudoeste 25 Sudoeste 0 -- -- 71
2019-04-07 10:00:00 6.2 7 Sudoeste 17 Oeste 0 -- -- 87
2019-04-07 09:00:00 4.8 6 Sudoeste 15 Sudoeste 0 -- -- 91
2019-04-07 08:00:00 4.1 3 Sur 9 Sur 0 -- -- 89
2019-04-07 07:00:00 4.7 2 Sur 10 Sudoeste 0 -- -- 86
2019-04-07 06:00:00 4.4 2 Sudoeste 6 Sudeste 0 -- -- 86
2019-04-07 05:00:00 3.6 3 Sudeste 9 Este 0 -- -- 87
2019-04-07 04:00:00 3.3 3 Sudeste 9 Sudeste 0 -- -- 88
2019-04-07 03:00:00 3.3 4 Sudeste 8 Sur 0 -- -- 88
2019-04-07 02:00:00 3.6 4 Sudeste 7 Sudeste 0 -- -- 88
2019-04-07 01:00:00 4.9 2 Este 13 Nordeste 0 -- -- 87
2019-04-07 00:00:00 6.2 5 Norte 12 Norte 0 -- -- 86
2019-04-06 23:00:00 6.7 5 Noroeste 24 Oeste 0 -- -- 83
2019-04-06 22:00:00 8.9 5 Oeste 21 Oeste 0 -- -- 53
2019-04-06 21:00:00 9.1 6 Sur 17 Sudeste 0 -- -- 52
2019-04-06 20:00:00 10.6 9 Sudeste 22 Sudeste 0 -- -- 47
2019-04-06 19:00:00 12.5 6 Oeste 18 Oeste 0 -- -- 37
2019-04-06 18:00:00 12.7 4 Oeste 19 Sudoeste 0 -- -- 41
2019-04-06 17:00:00 12.2 5 Sudoeste 18 Noroeste 0 -- -- 41
2019-04-06 16:00:00 12.1 8 Noroeste 25 Sudoeste 0 -- -- 44
2019-04-06 15:00:00 11.7 6 Oeste 27 Noroeste 0 -- -- 46
2019-04-06 14:00:00 11 6 Oeste 28 Sudoeste 0 -- -- 49
2019-04-06 13:00:00 9.3 9 Sudoeste 26 Sudoeste 0 -- -- 56
2019-04-06 12:00:00 8.7 8 Sudoeste 28 Sudoeste 0 -- -- 63
2019-04-06 11:00:00 7.5 10 Sudoeste 22 Sudoeste 0 -- -- 69
2019-04-06 10:00:00 6.3 5 Sudoeste 15 Sudoeste 0 -- -- 83
2019-04-06 09:00:00 5.2 6 Oeste 14 Sudoeste 0.4 -- -- 88
2019-04-06 08:00:00 5 5 Sudoeste 15 Sudoeste 0 -- -- 89
2019-04-06 07:00:00 4.9 7 Sudoeste 19 Sudoeste 0 -- -- 89
2019-04-06 06:00:00 5 7 Sudoeste 19 Sudoeste 0 -- -- 87
2019-04-06 05:00:00 4.9 8 Sudoeste 21 Sudoeste 0 -- -- 89
2019-04-06 04:00:00 5.3 7 Sudoeste 22 Sudoeste 0 -- -- 91
2019-04-06 03:00:00 5.7 8 Sudoeste 23 Sudoeste 0 -- -- 90
2019-04-06 02:00:00 7.2 0 Calma 11 Nordeste 1.4 -- -- 92
2019-04-06 01:00:00 7.4 6 Nordeste 17 Norte 0.5 -- -- 89
2019-04-06 00:00:00 7.5 3 Nordeste 8 Sudeste 0.2 -- -- 87
2019-04-05 23:00:00 7.6 3 Este 13 Sudeste 0.4 -- -- 87
2019-04-05 22:00:00 8 0 Calma 21 Sudeste 5 -- -- 88
2019-04-05 21:00:00 8.8 5 Sur 16 Sudoeste 1.9 -- -- 84
2019-04-05 20:00:00 10.9 0 Calma 19 Sudeste 0 -- -- 66
2019-04-05 19:00:00 11.3 9 Sudeste 29 Sudeste 0 -- -- 56
2019-04-05 18:00:00 12.2 14 Sudeste 29 Sudeste 0 -- -- 57
2019-04-05 17:00:00 11.8 7 Nordeste 19 Nordeste 0 -- -- 74
2019-04-05 16:00:00 9.3 7 Nordeste 17 Nordeste 0.7 -- -- 86
2019-04-05 15:00:00 9.5 12 Nordeste 19 Nordeste 0.9 -- -- 84
2019-04-05 14:00:00 10.9 8 Nordeste 16 Este 0 -- -- 72
2019-04-05 13:00:00 13.2 6 Nordeste 20 Nordeste 0 -- -- 68
2019-04-05 12:00:00 9.5 5 Norte 17 Sudoeste 0 -- -- 83
2019-04-05 11:00:00 10 0 Calma 9 Nordeste 1 -- -- 79
2019-04-05 10:00:00 8.6 0 Calma 10 Este 0 -- -- 74
2019-04-05 09:00:00 6.7 2 Sudeste 6 Sudeste 0 -- -- 76
2019-04-05 08:00:00 5.2 0 Calma 9 Nordeste 0 -- -- 76
2019-04-05 07:00:00 3.5 3 Nordeste 8 Sudeste 0 -- -- 73
2019-04-05 06:00:00 2.3 0 Calma 9 Sudeste 0 -- -- 66
2019-04-05 05:00:00 1.5 0 Calma 6 Sudeste 0 -- -- 68
2019-04-05 04:00:00 2.9 0 Calma 9 Este 0 -- -- 65
2019-04-05 03:00:00 3 3 Este 9 Este 0 -- -- 65
2019-04-05 02:00:00 4.1 3 Sudeste 9 Sudeste 0 -- -- 59
2019-04-05 01:00:00 4.8 5 Sudeste 13 Sudeste 0 -- -- 56
2019-04-05 00:00:00 4.9 7 Sudeste 14 Este 0 -- -- 47
2019-04-04 23:00:00 3.6 5 Sudeste 10 Este 0 -- -- 49
2019-04-04 22:00:00 5.4 4 Sudeste 8 Sudeste 0 -- -- 45
2019-04-04 21:00:00 8.1 3 Sudeste 9 Sudoeste 0 -- -- 36
2019-04-04 20:00:00 11.2 4 Sudoeste 20 Sudoeste 0 -- -- 31
2019-04-04 19:00:00 11.9 7 Oeste 24 Oeste 0 -- -- 29
2019-04-04 18:00:00 12.7 8 Oeste 31 Oeste 0 -- -- 28
2019-04-04 17:00:00 12.8 7 Sudoeste 26 Noroeste 0 -- -- 29
2019-04-04 16:00:00 13.6 6 Sudoeste 40 Sudoeste 0 -- -- 32
2019-04-04 15:00:00 11.9 7 Oeste 28 Sudoeste 0 -- -- 36
2019-04-04 14:00:00 11 7 Oeste 26 Noroeste 0 -- -- 40
2019-04-04 13:00:00 9 8 Oeste 25 Noroeste 0 -- -- 43
2019-04-04 12:00:00 7.8 8 Oeste 22 Sudoeste 0 -- -- 49
2019-04-04 11:00:00 6.1 7 Oeste 20 Sudoeste 0 -- -- 58
2019-04-04 10:00:00 4.4 7 Sudoeste 22 Sudoeste 0 -- -- 64
2019-04-04 09:00:00 2.3 6 Sudoeste 17 Sudoeste 0 -- -- 69
2019-04-04 08:00:00 0.9 5 Sudoeste 13 Sudoeste 0 -- -- 72
2019-04-04 07:00:00 0.6 4 Sur 9 Sur 0 -- -- 70
2019-04-04 06:00:00 1.2 3 Sur 16 Sudoeste 0 -- -- 68
2019-04-04 05:00:00 2 6 Sudoeste 18 Sudoeste 0 -- -- 68
2019-04-04 04:00:00 2.4 4 Sudoeste 17 Sur 0 -- -- 68
2019-04-04 03:00:00 2.9 3 Sudoeste 18 Sudoeste 0 -- -- 70
2019-04-04 02:00:00 3.5 5 Sudoeste 18 Sudoeste 0 -- -- 72
2019-04-04 01:00:00 4.6 5 Sudoeste 20 Sur 0 -- -- 67
2019-04-04 00:00:00 4.8 6 Sudoeste 23 Sudoeste 0 -- -- 68
2019-04-03 23:00:00 5.3 6 Sudoeste 23 Sudoeste 0 -- -- 71
2019-04-03 22:00:00 6.1 8 Sudoeste 25 Sudoeste 0 -- -- 75
2019-04-03 21:00:00 7.3 9 Sudoeste 18 Oeste 0 -- -- 65
2019-04-03 20:00:00 7.8 5 Sudoeste 19 Oeste 0 -- -- 68
2019-04-03 19:00:00 8.3 7 Oeste 22 Oeste 0 -- -- 68
2019-04-03 18:00:00 9 8 Oeste 26 Oeste 0 -- -- 68
2019-04-03 17:00:00 10.3 5 Oeste 20 Oeste 0 -- -- 70
2019-04-03 16:00:00 11.4 6 Sudoeste 22 Oeste 0 -- -- 61
2019-04-03 15:00:00 11.8 6 Oeste 22 Sudoeste 0 -- -- 59
2019-04-03 14:00:00 12.4 6 Oeste 18 Oeste 0 -- -- 58
2019-04-03 13:00:00 11.4 4 Sudoeste 15 Oeste 0 -- -- 67
2019-04-03 12:00:00 10.2 7 Sudoeste 17 Sudoeste 0 -- -- 72
2019-04-03 11:00:00 9.8 5 Sudoeste 13 Sudoeste 0 -- -- 77
2019-04-03 10:00:00 9.8 3 Noroeste 13 Oeste 0 -- -- 83
2019-04-03 09:00:00 10.6 3 Oeste 11 Oeste 0 -- -- 83
2019-04-03 08:00:00 9.7 0 Calma 14 Sur 0 -- -- 86
2019-04-03 07:00:00 9.7 3 Sudeste 14 Sudeste 0 -- -- 86
2019-04-03 06:00:00 10 7 Sudeste 14 Sudeste 0 -- -- 83
2019-04-03 05:00:00 9.2 5 Sudeste 8 Sudeste 0 -- -- 84
2019-04-03 04:00:00 9.4 6 Sudeste 11 Sudeste 0 -- -- 81
2019-04-03 03:00:00 9.6 2 Este 6 Este 0 -- -- 77
2019-04-03 02:00:00 10.2 0 Calma 7 Sudeste 0 -- -- 71
2019-04-03 01:00:00 10.4 4 Sudeste 9 Este 0 -- -- 71
2019-04-03 00:00:00 11 0 Calma 10 Sudeste 0 -- -- 71
2019-04-02 23:00:00 11.7 4 Sudeste 10 Sudeste 0 -- -- 71
2019-04-02 22:00:00 12.6 3 Sudeste 14 Sudeste 0 -- -- 68
2019-04-02 21:00:00 13.5 6 Sudeste 13 Sudeste 0 -- -- 67
2019-04-02 20:00:00 16.3 4 Sudoeste 14 Sudoeste 0 -- -- 45
2019-04-02 19:00:00 17.2 6 Sudoeste 21 Sudoeste 0 -- -- 40
2019-04-02 18:00:00 18 8 Sudoeste 25 Sudoeste 0 -- -- 39
2019-04-02 17:00:00 16.7 9 Sudoeste 23 Sudoeste 0 -- -- 42
2019-04-02 16:00:00 19.4 9 Sudoeste 30 Sudoeste 0 -- -- 43
2019-04-02 15:00:00 18 6 Oeste 23 Oeste 0 -- -- 46
2019-04-02 14:00:00 17 9 Sudoeste 22 Sudoeste 0 -- -- 49
2019-04-02 13:00:00 16.8 6 Sudoeste 17 Sudoeste 0 -- -- 48
2019-04-02 12:00:00 14.2 4 Sudoeste 12 Sudoeste 0 -- -- 53
2019-04-02 11:00:00 12.6 4 Oeste 10 Oeste 0 -- -- 55
2019-04-02 10:00:00 11.2 3 Sudoeste 6 Oeste 0 -- -- 62
2019-04-02 09:00:00 7.5 2 Sudeste 6 Sur 0 -- -- 75
2019-04-02 08:00:00 5.5 4 Sudeste 8 Sudeste 0 -- -- 79
2019-04-02 07:00:00 6 4 Sudeste 5 Sudeste 0 -- -- 77
2019-04-02 06:00:00 6.8 0 Calma 4 Sudeste 0 -- -- 72
2019-04-02 05:00:00 8 2 Sudeste 6 Sudeste 0 -- -- 68
2019-04-02 04:00:00 8 3 Sudeste 5 Sudeste 0 -- -- 66
2019-04-02 03:00:00 8.5 3 Sudeste 8 Sudeste 0 -- -- 65
2019-04-02 02:00:00 8.2 4 Sudeste 6 Sudeste 0 -- -- 64
2019-04-02 01:00:00 9 4 Sudeste 7 Sudeste 0 -- -- 62
2019-04-02 00:00:00 9.5 4 Sudeste 7 Sudeste 0 -- -- 60
2019-04-01 23:00:00 9.8 4 Sudeste 7 Sudeste 0 -- -- 60
2019-04-01 22:00:00 10.7 3 Este 8 Sudeste 0 -- -- 57
2019-04-01 21:00:00 13.3 0 Calma 11 Oeste 0 -- -- 59
2019-04-01 20:00:00 14.2 2 Oeste 15 Sudoeste 0 -- -- 51
2019-04-01 19:00:00 16.1 7 Sudoeste 16 Sur 0 -- -- 44
2019-04-01 18:00:00 17.3 6 Oeste 21 Sudoeste 0 -- -- 42
2019-04-01 17:00:00 17.3 6 Oeste 23 Sur 0 -- -- 42
2019-04-01 16:00:00 17.3 5 Sudoeste 18 Sudoeste 0 -- -- 42
2019-04-01 15:00:00 16.9 8 Sudoeste 19 Oeste 0 -- -- 42
2019-04-01 14:00:00 16 5 Noroeste 15 Noroeste 0 -- -- 46
2019-04-01 13:00:00 14.5 5 Oeste 14 Noroeste 0 -- -- 55
2019-04-01 12:00:00 13.2 4 Sudoeste 12 Oeste 0 -- -- 62
2019-04-01 11:00:00 10.2 4 Sudoeste 8 Sudoeste 0 -- -- 75
2019-04-01 10:00:00 9.3 4 Sudoeste 9 Sudoeste 0 -- -- 76
2019-04-01 09:00:00 7.5 2 Sudeste 6 Sudeste 0 -- -- 79
2019-04-01 08:00:00 6.8 2 Sudeste 5 Sudeste 0 -- -- 77
2019-04-01 07:00:00 7.2 3 Sudeste 5 Este 0 -- -- 75
2019-04-01 06:00:00 7.5 2 Sudeste 5 Sudeste 0 -- -- 74
2019-04-01 05:00:00 8.5 0 Calma 7 Noroeste 0 -- -- 72
2019-04-01 04:00:00 8.4 0 Calma -- -- 0 -- -- 56
2019-04-01 03:00:00 8.6 0 Calma -- -- 0 -- -- 54
2019-04-01 02:00:00 9.6 0 Calma 5 Nordeste 0 -- -- 47
2019-04-01 01:00:00 9.8 0 Calma 8 Nordeste 0 -- -- 45
2019-04-01 00:00:00 10.8 4 Nordeste 14 Sudeste 0 -- -- 42
2019-03-31 23:00:00 11.5 4 Este 8 Nordeste 0 -- -- 46
2019-03-31 22:00:00 11.7 2 Norte 8 Sudeste 0 -- -- 64
2019-03-31 21:00:00 12.3 0 Calma 10 Sudoeste 0 -- -- 62
2019-03-31 20:00:00 13.6 4 Sur 17 Sudeste 0 -- -- 53
2019-03-31 19:00:00 14.8 2 Sur 8 Sur 0 -- -- 52
2019-03-31 18:00:00 15.1 3 Sudoeste 12 Sudoeste 0 -- -- 51
2019-03-31 17:00:00 15.5 0 Calma 15 Este 0 -- -- 49
2019-03-31 16:00:00 15.7 5 Este 18 Sudeste 0 -- -- 51
2019-03-31 15:00:00 13.3 6 Este 18 Este 0 -- -- 57
2019-03-31 14:00:00 12.2 6 Este 22 Sudeste 0 -- -- 60
2019-03-31 13:00:00 11.1 9 Este 18 Este 0 -- -- 65
2019-03-31 12:00:00 10.8 8 Sudeste 22 Este 0 -- -- 67
2019-03-31 11:00:00 10.5 7 Este 19 Sudeste 0 -- -- 70
2019-03-31 10:00:00 8.5 6 Norte 13 Nordeste 0 -- -- 81
2019-03-31 09:00:00 7.5 6 Este 12 Este 0 -- -- 85
2019-03-31 08:00:00 4.5 5 Este 11 Sudeste 0 -- -- 89
2019-03-31 07:00:00 4.1 0 Calma 5 Este 0 -- -- 88
2019-03-31 06:00:00 3.9 2 Sudeste 11 Sudeste 0 -- -- 90
2019-03-31 05:00:00 4 8 Este 16 Este 0 -- -- 91
2019-03-31 03:00:00 4.2 0 Calma 6 Nordeste 0 -- -- 88
2019-03-31 01:00:00 4.6 2 Sudeste 7 Sudeste 0 -- -- 85
2019-03-31 00:00:00 6 0 Calma 13 Nordeste 0 -- -- 82
2019-03-30 23:00:00 7.2 6 Nordeste 17 Nordeste 0 -- -- 78
2019-03-30 22:00:00 8 5 Nordeste 19 Sudeste 0 -- -- 76
2019-03-30 21:00:00 8.7 12 Sudeste 29 Sudeste 0 -- -- 72
2019-03-30 20:00:00 9.8 12 Sudeste 25 Sudeste 0 -- -- 68
2019-03-30 19:00:00 11.6 12 Sudeste 24 Sudeste 0 -- -- 59
2019-03-30 18:00:00 13.8 8 Sur 25 Sudeste 0 -- -- 49
2019-03-30 17:00:00 15.4 9 Sur 25 Sudeste 0 -- -- 45
2019-03-30 16:00:00 16.9 10 Sudeste 24 Sudeste 0 -- -- 40
2019-03-30 15:00:00 16.6 5 Sudeste 23 Sudeste 0 -- -- 37
2019-03-30 14:00:00 16.3 2 Este 17 Sudoeste 0 -- -- 39
2019-03-30 13:00:00 16.6 7 Sudeste 18 Este 0 -- -- 36
2019-03-30 12:00:00 15.1 3 Este 16 Sudeste 0 -- -- 39
2019-03-30 11:00:00 14.1 5 Sudeste 13 Sur 0 -- -- 41
2019-03-30 10:00:00 13.3 4 Sudeste 10 Sudeste 0 -- -- 45
2019-03-30 09:00:00 10.3 3 Sudeste 13 Sudeste 0 -- -- 65
2019-03-30 08:00:00 5.9 6 Sudeste 14 Este 0 -- -- 83
2019-03-30 07:00:00 2.9 2 Sur 12 Sudeste 0 -- -- 89
2019-03-30 06:00:00 2.4 0 Calma 6 Sudeste 0 -- -- 89
2019-03-30 05:00:00 2.7 3 Sudeste 8 Sudeste 0 -- -- 87
2019-03-30 04:00:00 2.6 3 Este 7 Este 0 -- -- 83
2019-03-30 03:00:00 2.9 0 Calma 5 Sudeste 0 -- -- 83
2019-03-30 02:00:00 4 3 Sudeste 7 Este 0 -- -- 78
2019-03-30 01:00:00 5.1 0 Calma 3 Sudeste 0 -- -- 69
2019-03-30 00:00:00 6.3 0 Calma 6 Norte 0 -- -- 61
2019-03-29 23:00:00 6.7 3 Norte 10 Este 0 -- -- 57
2019-03-29 22:00:00 7.9 9 Este 19 Este 0 -- -- 54
2019-03-29 21:00:00 9.1 9 Este 18 Sudeste 0 -- -- 52
2019-03-29 20:00:00 10.3 8 Sudeste 22 Sudeste 0 -- -- 54
2019-03-29 19:00:00 12 10 Sudeste 28 Sudeste 0 -- -- 46
2019-03-29 18:00:00 13.9 13 Sudeste 26 Sudeste 0 -- -- 41
2019-03-29 17:00:00 15.6 9 Sudeste 24 Sudeste 0 -- -- 40
2019-03-29 16:00:00 15.9 9 Sudeste 26 Sudeste 0 -- -- 41
2019-03-29 15:00:00 15.1 12 Sudeste 25 Sur 0 -- -- 41
2019-03-29 14:00:00 16.2 6 Sudeste 19 Sudeste 0 -- -- 36
2019-03-29 13:00:00 16.8 5 Este 22 Sudeste 0 -- -- 35
2019-03-29 12:00:00 17.3 3 Noroeste 18 Sudeste 0 -- -- 35
2019-03-29 11:00:00 16 6 Nordeste 13 Este 0 -- -- 37
2019-03-29 10:00:00 14.8 2 Oeste 9 Noroeste 0 -- -- 40
2019-03-29 09:00:00 11.7 3 Este 7 Sudeste 0 -- -- 49
2019-03-29 08:00:00 5.9 3 Sudeste 8 Sur 0 -- -- 67
2019-03-29 07:00:00 4.1 3 Sudeste 9 Este 0 -- -- 68
2019-03-29 06:00:00 4.4 2 Este 8 Este 0 -- -- 68
2019-03-29 05:00:00 4.1 0 Calma 8 Sudeste 0 -- -- 69
2019-03-29 04:00:00 4.1 3 Sudeste 8 Este 0 -- -- 68
2019-03-29 03:00:00 4.9 3 Este 9 Este 0 -- -- 66
2019-03-29 02:00:00 5.6 0 Calma 6 Este 0 -- -- 65
2019-03-29 01:00:00 6.2 0 Calma 9 Nordeste 0 -- -- 61
2019-03-29 00:00:00 7.2 0 Calma 8 Noroeste 0 -- -- 50
2019-03-28 23:00:00 8.1 4 Norte 24 Sur 0 -- -- 47
2019-03-28 22:00:00 9.6 11 Sudeste 24 Sudeste 0 -- -- 47
2019-03-28 21:00:00 10 11 Sudeste 24 Sudeste 0 -- -- 47
2019-03-28 20:00:00 10.7 12 Sudeste 25 Sudeste 0 -- -- 43
2019-03-28 19:00:00 12.4 12 Sudeste 26 Sudeste 0 -- -- 38
2019-03-28 18:00:00 15.4 6 Sudeste 16 Sudoeste 0 -- -- 35
2019-03-28 17:00:00 17 3 Oeste 19 Noroeste 0 -- -- 36
2019-03-28 16:00:00 17 7 Oeste 19 Sudoeste 0 -- -- 36
2019-03-28 15:00:00 16.9 5 Oeste 19 Sudoeste 0 -- -- 37
2019-03-28 14:00:00 15.8 6 Oeste 17 Sudoeste 0 -- -- 41
2019-03-28 13:00:00 14.4 4 Oeste 15 Noroeste 0 -- -- 44
2019-03-28 12:00:00 12.7 3 Noroeste 15 Oeste 0 -- -- 47
2019-03-28 11:00:00 12.3 4 Sudoeste 14 Sudoeste 0 -- -- 50
2019-03-28 10:00:00 10 4 Sudoeste 12 Sudoeste 0 -- -- 53
2019-03-28 09:00:00 8.8 4 Sudoeste 11 Sudoeste 0 -- -- 60
2019-03-28 08:00:00 5.3 3 Sudeste 6 Sur 0 -- -- 71
2019-03-28 07:00:00 2.7 3 Sudoeste 5 Sudeste 0 -- -- 77
2019-03-28 06:00:00 3.2 3 Sudeste 8 Sudeste 0 -- -- 76
2019-03-28 05:00:00 3.3 3 Sudeste 6 Sudeste 0 -- -- 78
2019-03-28 04:00:00 3.9 4 Sudeste 8 Sudeste 0 -- -- 77
2019-03-28 03:00:00 4.3 5 Sudeste 9 Sudeste 0 -- -- 78
2019-03-28 02:00:00 4.5 4 Sur 8 Nordeste 0 -- -- 79
2019-03-28 01:00:00 6.4 2 Este 14 Este 0 -- -- 73
2019-03-28 00:00:00 6.9 3 Sudeste 14 Este 0 -- -- 69
2019-03-27 23:00:00 7.6 6 Este 22 Este 0 -- -- 61
2019-03-27 22:00:00 9.1 11 Este 21 Sudeste 0 -- -- 53
2019-03-27 21:00:00 9.6 12 Sudeste 20 Este 0 -- -- 51
2019-03-27 20:00:00 10.8 10 Sudeste 22 Sudeste 0 -- -- 47
2019-03-27 19:00:00 12.9 8 Sudeste 19 Sudeste 0 -- -- 37
2019-03-27 18:00:00 16.1 4 Noroeste 11 Oeste 0 -- -- 26
2019-03-27 17:00:00 17.1 3 Noroeste 18 Noroeste 0 -- -- 26
2019-03-27 16:00:00 17.1 5 Sudoeste 18 Oeste 0 -- -- 28
2019-03-27 15:00:00 17 5 Oeste 22 Sudoeste 0 -- -- 29
2019-03-27 14:00:00 16.2 7 Sudoeste 22 Sudoeste 0 -- -- 32
2019-03-27 13:00:00 14.9 7 Sudoeste 22 Sudoeste 0 -- -- 38
2019-03-27 12:00:00 13.8 6 Sudoeste 18 Sudoeste 0 -- -- 41
2019-03-27 11:00:00 11.6 4 Sudoeste 13 Oeste 0 -- -- 47
2019-03-27 10:00:00 10 3 Oeste 12 Oeste 0 -- -- 52
2019-03-27 09:00:00 8.7 3 Sudoeste 7 Oeste 0 -- -- 64
2019-03-27 08:00:00 3.6 4 Sudeste 9 Sudeste 0 -- -- 79
2019-03-27 07:00:00 1 3 Sudeste 7 Sur 0 -- -- 83
2019-03-27 06:00:00 0.9 5 Sudeste 8 Sudeste 0 -- -- 83
2019-03-27 05:00:00 1.6 3 Sudeste 10 Sudeste 0 -- -- 83
2019-03-27 04:00:00 2.1 4 Sudeste 8 Este 0 -- -- 82
2019-03-27 03:00:00 2 4 Sudeste 9 Este 0 -- -- 83
2019-03-27 02:00:00 2.3 4 Sudeste 8 Sudeste 0 -- -- 82
2019-03-27 01:00:00 3.5 3 Sudeste 7 Sudeste 0 -- -- 76
2019-03-27 00:00:00 5.6 0 Calma 8 Sudeste 0 -- -- 67
2019-03-26 23:00:00 7.9 6 Sudeste 23 Sudeste 0 -- -- 62
2019-03-26 22:00:00 8.5 10 Sudeste 26 Sudeste 0 -- -- 60
2019-03-26 21:00:00 8.8 10 Sudeste 27 Sudeste 0 -- -- 58
2019-03-26 20:00:00 9.7 14 Sudeste 30 Sudeste 0 -- -- 55
2019-03-26 19:00:00 11.4 10 Sudeste 23 Sudeste 0 -- -- 49
2019-03-26 18:00:00 14.3 7 Sur 18 Sudeste 0 -- -- 38
2019-03-26 17:00:00 18 6 Oeste 17 Oeste 0 -- -- 26
2019-03-26 16:00:00 17.7 6 Oeste 18 Oeste 0 -- -- 29
2019-03-26 15:00:00 16.9 5 Oeste 20 Noroeste 0 -- -- 33
2019-03-26 14:00:00 15.5 8 Sudoeste 26 Oeste 0 -- -- 34
2019-03-26 13:00:00 14.3 9 Sudoeste 23 Sudoeste 0 -- -- 41
2019-03-26 12:00:00 12.9 6 Sudoeste 18 Sur 0 -- -- 47
2019-03-26 11:00:00 10.8 5 Oeste 18 Sudoeste 0 -- -- 56
2019-03-26 10:00:00 8.8 6 Sudoeste 18 Sudoeste 0 -- -- 64
2019-03-26 09:00:00 7.2 5 Sudoeste 14 Sudoeste 0 -- -- 69
2019-03-26 08:00:00 3.8 2 Sudeste 12 Sudeste 0 -- -- 80
2019-03-26 07:00:00 0.9 5 Sudeste 10 Sudeste 0 -- -- 87
2019-03-26 06:00:00 1.7 2 Sudeste 6 Sudeste 0 -- -- 84
2019-03-26 05:00:00 2.5 3 Sudeste 6 Sur 0 -- -- 82
2019-03-26 04:00:00 3.5 0 Calma 7 Oeste 0 -- -- 77
2019-03-26 03:00:00 5.9 0 Calma 13 Sudoeste 0 -- -- 68
2019-03-26 02:00:00 7 3 Oeste 13 Oeste 0 -- -- 65
2019-03-26 01:00:00 8 4 Oeste 15 Oeste 0 -- -- 59
2019-03-26 00:00:00 9.3 2 Oeste 8 Noroeste 0 -- -- 53
2019-03-25 23:00:00 10.2 0 Calma 6 Sur 0 -- -- 48
2019-03-25 22:00:00 11.4 2 Sur 12 Sur 0 -- -- 45
2019-03-25 21:00:00 12.4 4 Sudoeste 18 Sudoeste 0 -- -- 42
2019-03-25 20:00:00 14.1 7 Sudoeste 23 Oeste 0 -- -- 39
2019-03-25 19:00:00 16.2 8 Sudoeste 24 Oeste 0 -- -- 38
2019-03-25 18:00:00 18.1 9 Sudoeste 27 Sudoeste 0 -- -- 39
2019-03-25 17:00:00 19.8 6 Oeste 26 Sudoeste 0 -- -- 38
2019-03-25 16:00:00 19 9 Oeste 25 Sudoeste 0 -- -- 38
2019-03-25 15:00:00 18.7 9 Oeste 27 Oeste 0 -- -- 40
2019-03-25 14:00:00 17.5 10 Sudoeste 26 Sudoeste 0 -- -- 43
2019-03-25 13:00:00 15.7 12 Sudoeste 34 Sudoeste 0 -- -- 45
2019-03-25 12:00:00 15.4 6 Sudoeste 26 Sudoeste 0 -- -- 47
2019-03-25 11:00:00 14.2 8 Oeste 22 Sudoeste 0 -- -- 49
2019-03-25 10:00:00 12.1 7 Sudoeste 17 Oeste 0 -- -- 52
2019-03-25 09:00:00 11.3 3 Oeste 11 Sudoeste 0 -- -- 56
2019-03-25 08:00:00 6.7 0 Calma -- -- 0 -- -- 69
2019-03-25 07:00:00 4.5 0 Calma 6 Sudeste 0 -- -- 72
2019-03-25 06:00:00 4.8 0 Calma 6 Sudoeste 0 -- -- 68
2019-03-25 05:00:00 6.2 0 Calma 7 Sudeste 0 -- -- 64
2019-03-25 04:00:00 7.2 4 Sudeste 8 Sur 0 -- -- 59
2019-03-25 03:00:00 7.6 5 Sudeste 12 Sudeste 0 -- -- 57
2019-03-25 02:00:00 7.9 6 Sudeste 10 Sudeste 0 -- -- 54
2019-03-25 01:00:00 9.3 3 Sudeste 6 Este 0 -- -- 49
2019-03-25 00:00:00 11.3 2 Nordeste 13 Sudeste 0 -- -- 45